sensor_id;sensor_type;location;lat;lon;timestamp;pressure;altitude;pressure_sealevel;temperature;humidity
49611;BME280;35515;48.766;9.176;2022-07-06T00:02:16;98905.88;;;21.12;46.59
49611;BME280;35515;48.766;9.176;2022-07-06T00:04:43;98903.31;;;21.00;47.19
49611;BME280;35515;48.766;9.176;2022-07-06T00:07:09;98899.75;;;21.04;47.38
49611;BME280;35515;48.766;9.176;2022-07-06T00:09:36;98906.88;;;21.00;46.40
49611;BME280;35515;48.766;9.176;2022-07-06T00:12:04;98906.00;;;20.95;46.22
49611;BME280;35515;48.766;9.176;2022-07-06T00:14:31;98902.03;;;20.80;46.24
49611;BME280;35515;48.766;9.176;2022-07-06T00:16:57;98900.63;;;20.78;46.77
49611;BME280;35515;48.766;9.176;2022-07-06T00:19:24;98897.69;;;20.90;47.10
49611;BME280;35515;48.766;9.176;2022-07-06T00:21:51;98898.09;;;20.71;46.53
49611;BME280;35515;48.766;9.176;2022-07-06T00:24:17;98895.16;;;20.50;46.72
49611;BME280;35515;48.766;9.176;2022-07-06T00:26:44;98902.97;;;20.64;47.36
49611;BME280;35515;48.766;9.176;2022-07-06T00:29:12;98895.19;;;20.55;46.82
49611;BME280;35515;48.766;9.176;2022-07-06T00:31:38;98896.94;;;20.67;46.98
49611;BME280;35515;48.766;9.176;2022-07-06T00:34:05;98898.78;;;20.56;46.56
49611;BME280;35515;48.766;9.176;2022-07-06T00:36:32;98903.16;;;20.79;47.18
49611;BME280;35515;48.766;9.176;2022-07-06T00:38:58;98897.41;;;20.86;46.96
49611;BME280;35515;48.766;9.176;2022-07-06T00:41:25;98900.50;;;20.95;46.67
49611;BME280;35515;48.766;9.176;2022-07-06T00:43:52;98904.97;;;21.01;46.68
49611;BME280;35515;48.766;9.176;2022-07-06T00:46:25;98906.06;;;21.00;46.78
49611;BME280;35515;48.766;9.176;2022-07-06T00:48:53;98907.69;;;20.96;46.83
49611;BME280;35515;48.766;9.176;2022-07-06T00:51:22;98898.31;;;20.97;46.98
49611;BME280;35515;48.766;9.176;2022-07-06T00:53:49;98895.31;;;20.98;47.05
49611;BME280;35515;48.766;9.176;2022-07-06T00:56:16;98898.78;;;20.88;46.96
49611;BME280;35515;48.766;9.176;2022-07-06T00:58:43;98899.09;;;20.92;47.10
49611;BME280;35515;48.766;9.176;2022-07-06T01:01:10;98892.03;;;20.69;47.26
49611;BME280;35515;48.766;9.176;2022-07-06T01:03:38;98888.41;;;20.68;47.28
49611;BME280;35515;48.766;9.176;2022-07-06T01:06:05;98893.72;;;20.70;47.28
49611;BME280;35515;48.766;9.176;2022-07-06T01:08:31;98890.34;;;20.68;46.89
49611;BME280;35515;48.766;9.176;2022-07-06T01:10:58;98892.03;;;20.69;47.06
49611;BME280;35515;48.766;9.176;2022-07-06T01:13:26;98901.16;;;20.75;46.89
49611;BME280;35515;48.766;9.176;2022-07-06T01:15:53;98901.00;;;20.86;47.36
49611;BME280;35515;48.766;9.176;2022-07-06T01:18:20;98894.56;;;20.76;47.37
49611;BME280;35515;48.766;9.176;2022-07-06T01:20:48;98891.34;;;20.84;47.05
49611;BME280;35515;48.766;9.176;2022-07-06T01:23:15;98898.09;;;20.71;45.92
49611;BME280;35515;48.766;9.176;2022-07-06T01:25:41;98900.75;;;20.61;46.72
49611;BME280;35515;48.766;9.176;2022-07-06T01:28:08;98894.13;;;20.62;46.92
49611;BME280;35515;48.766;9.176;2022-07-06T01:30:35;98888.78;;;20.45;45.88
49611;BME280;35515;48.766;9.176;2022-07-06T01:33:02;98889.53;;;20.40;46.59
49611;BME280;35515;48.766;9.176;2022-07-06T01:35:29;98888.06;;;20.32;46.60
49611;BME280;35515;48.766;9.176;2022-07-06T01:37:59;98888.00;;;20.22;46.43
49611;BME280;35515;48.766;9.176;2022-07-06T01:40:26;98888.34;;;20.03;46.73
49611;BME280;35515;48.766;9.176;2022-07-06T01:42:52;98887.94;;;20.17;46.92
49611;BME280;35515;48.766;9.176;2022-07-06T01:45:19;98888.78;;;19.95;46.93
49611;BME280;35515;48.766;9.176;2022-07-06T01:47:45;98891.72;;;20.38;46.02
49611;BME280;35515;48.766;9.176;2022-07-06T01:50:12;98882.38;;;20.12;45.99
49611;BME280;35515;48.766;9.176;2022-07-06T01:52:39;98884.28;;;19.67;46.89
49611;BME280;35515;48.766;9.176;2022-07-06T01:55:08;98889.94;;;19.99;45.94
49611;BME280;35515;48.766;9.176;2022-07-06T01:57:35;98890.94;;;19.71;46.59
49611;BME280;35515;48.766;9.176;2022-07-06T02:00:03;98889.44;;;19.41;47.48
49611;BME280;35515;48.766;9.176;2022-07-06T02:02:30;98888.94;;;19.44;47.79
49611;BME280;35515;48.766;9.176;2022-07-06T02:04:57;98899.78;;;19.34;47.94
49611;BME280;35515;48.766;9.176;2022-07-06T02:07:23;98899.09;;;19.44;47.60
49611;BME280;35515;48.766;9.176;2022-07-06T02:09:50;98898.53;;;19.64;47.20
49611;BME280;35515;48.766;9.176;2022-07-06T02:12:18;98902.50;;;19.73;47.54
49611;BME280;35515;48.766;9.176;2022-07-06T02:14:44;98901.66;;;19.50;48.01
49611;BME280;35515;48.766;9.176;2022-07-06T02:17:11;98899.56;;;19.58;47.75
49611;BME280;35515;48.766;9.176;2022-07-06T02:19:38;98895.22;;;19.62;47.66
49611;BME280;35515;48.766;9.176;2022-07-06T02:22:04;98898.25;;;19.43;47.65
49611;BME280;35515;48.766;9.176;2022-07-06T02:24:31;98899.22;;;19.32;48.15
49611;BME280;35515;48.766;9.176;2022-07-06T02:26:57;98899.66;;;19.24;48.20
49611;BME280;35515;48.766;9.176;2022-07-06T02:29:25;98900.25;;;19.09;48.79
49611;BME280;35515;48.766;9.176;2022-07-06T02:31:53;98903.22;;;19.24;48.44
49611;BME280;35515;48.766;9.176;2022-07-06T02:34:19;98904.38;;;19.11;48.80
49611;BME280;35515;48.766;9.176;2022-07-06T02:36:46;98902.41;;;19.07;48.86
49611;BME280;35515;48.766;9.176;2022-07-06T02:39:13;98907.44;;;18.64;49.94
49611;BME280;35515;48.766;9.176;2022-07-06T02:41:39;98914.44;;;18.71;49.91
49611;BME280;35515;48.766;9.176;2022-07-06T02:44:06;98913.47;;;19.12;48.91
49611;BME280;35515;48.766;9.176;2022-07-06T02:46:34;98916.88;;;19.02;49.24
49611;BME280;35515;48.766;9.176;2022-07-06T02:49:01;98919.78;;;19.29;49.36
49611;BME280;35515;48.766;9.176;2022-07-06T02:51:27;98925.56;;;19.50;48.44
49611;BME280;35515;48.766;9.176;2022-07-06T02:53:54;98923.50;;;19.40;48.83
49611;BME280;35515;48.766;9.176;2022-07-06T02:56:20;98923.84;;;19.66;48.38
49611;BME280;35515;48.766;9.176;2022-07-06T02:58:47;98933.84;;;19.72;48.20
49611;BME280;35515;48.766;9.176;2022-07-06T03:01:13;98928.53;;;19.65;48.51
49611;BME280;35515;48.766;9.176;2022-07-06T03:03:41;98921.34;;;19.81;48.05
49611;BME280;35515;48.766;9.176;2022-07-06T03:06:08;98927.47;;;19.88;48.20
49611;BME280;35515;48.766;9.176;2022-07-06T03:08:34;98935.69;;;19.66;48.21
49611;BME280;35515;48.766;9.176;2022-07-06T03:11:01;98938.81;;;19.75;48.80
49611;BME280;35515;48.766;9.176;2022-07-06T03:13:28;98937.22;;;19.40;48.85
49611;BME280;35515;48.766;9.176;2022-07-06T03:15:55;98935.84;;;19.20;49.60
49611;BME280;35515;48.766;9.176;2022-07-06T03:18:21;98941.72;;;19.46;48.82
49611;BME280;35515;48.766;9.176;2022-07-06T03:20:49;98935.09;;;19.25;49.31
49611;BME280;35515;48.766;9.176;2022-07-06T03:23:16;98940.16;;;19.16;49.64
49611;BME280;35515;48.766;9.176;2022-07-06T03:25:42;98943.06;;;18.76;50.62
49611;BME280;35515;48.766;9.176;2022-07-06T03:28:09;98943.69;;;18.66;50.80
49611;BME280;35515;48.766;9.176;2022-07-06T03:30:36;98943.84;;;19.05;50.81
49611;BME280;35515;48.766;9.176;2022-07-06T03:33:02;98935.59;;;19.22;50.10
49611;BME280;35515;48.766;9.176;2022-07-06T03:35:29;98935.00;;;19.37;49.72
49611;BME280;35515;48.766;9.176;2022-07-06T03:37:57;98944.69;;;19.62;49.03
49611;BME280;35515;48.766;9.176;2022-07-06T03:40:23;98947.44;;;19.62;49.20
49611;BME280;35515;48.766;9.176;2022-07-06T03:42:50;98947.56;;;19.72;48.89
49611;BME280;35515;48.766;9.176;2022-07-06T03:45:17;98949.03;;;19.58;49.17
49611;BME280;35515;48.766;9.176;2022-07-06T03:47:43;98943.34;;;19.64;49.07
49611;BME280;35515;48.766;9.176;2022-07-06T03:50:10;98941.38;;;19.60;49.63
49611;BME280;35515;48.766;9.176;2022-07-06T03:52:37;98946.28;;;19.58;49.61
49611;BME280;35515;48.766;9.176;2022-07-06T03:55:08;98942.59;;;19.69;49.38
49611;BME280;35515;48.766;9.176;2022-07-06T03:57:35;98952.50;;;19.70;49.54
49611;BME280;35515;48.766;9.176;2022-07-06T04:00:03;98947.75;;;19.65;49.63
49611;BME280;35515;48.766;9.176;2022-07-06T04:02:30;98953.53;;;19.47;49.92
49611;BME280;35515;48.766;9.176;2022-07-06T04:04:56;98957.63;;;19.44;50.32
49611;BME280;35515;48.766;9.176;2022-07-06T04:07:24;98968.78;;;19.20;50.37
49611;BME280;35515;48.766;9.176;2022-07-06T04:09:50;98964.53;;;19.30;50.67
49611;BME280;35515;48.766;9.176;2022-07-06T04:12:18;98965.31;;;19.25;51.02
49611;BME280;35515;48.766;9.176;2022-07-06T04:14:45;98965.13;;;19.15;51.34
49611;BME280;35515;48.766;9.176;2022-07-06T04:17:11;98969.72;;;19.26;50.77
49611;BME280;35515;48.766;9.176;2022-07-06T04:19:55;98964.31;;;19.31;50.82
49611;BME280;35515;48.766;9.176;2022-07-06T04:22:22;98966.63;;;19.05;51.05
49611;BME280;35515;48.766;9.176;2022-07-06T04:24:49;98975.63;;;19.18;51.06
49611;BME280;35515;48.766;9.176;2022-07-06T04:27:15;98981.94;;;19.01;51.45
49611;BME280;35515;48.766;9.176;2022-07-06T04:29:43;98985.09;;;18.93;52.00
49611;BME280;35515;48.766;9.176;2022-07-06T04:32:10;98968.47;;;18.71;52.11
49611;BME280;35515;48.766;9.176;2022-07-06T04:34:36;98972.50;;;18.80;52.03
49611;BME280;35515;48.766;9.176;2022-07-06T04:37:03;98974.84;;;18.88;52.02
49611;BME280;35515;48.766;9.176;2022-07-06T04:39:30;98979.53;;;19.05;51.86
49611;BME280;35515;48.766;9.176;2022-07-06T04:41:57;98983.31;;;18.70;52.23
49611;BME280;35515;48.766;9.176;2022-07-06T04:44:23;98983.97;;;18.77;52.76
49611;BME280;35515;48.766;9.176;2022-07-06T04:46:51;98980.78;;;18.51;53.17
49611;BME280;35515;48.766;9.176;2022-07-06T04:49:18;98987.94;;;18.69;52.68
49611;BME280;35515;48.766;9.176;2022-07-06T04:51:45;98988.78;;;18.41;53.75
49611;BME280;35515;48.766;9.176;2022-07-06T04:54:11;98985.44;;;18.68;53.55
49611;BME280;35515;48.766;9.176;2022-07-06T04:56:38;98992.78;;;18.79;53.19
49611;BME280;35515;48.766;9.176;2022-07-06T04:59:04;98986.72;;;18.48;53.94
49611;BME280;35515;48.766;9.176;2022-07-06T05:01:31;98992.91;;;18.55;54.10
49611;BME280;35515;48.766;9.176;2022-07-06T05:03:59;98998.13;;;18.28;54.61
49611;BME280;35515;48.766;9.176;2022-07-06T05:06:26;98996.84;;;18.19;54.95
49611;BME280;35515;48.766;9.176;2022-07-06T05:08:52;98999.34;;;18.20;55.24
49611;BME280;35515;48.766;9.176;2022-07-06T05:11:19;98994.38;;;18.46;54.96
49611;BME280;35515;48.766;9.176;2022-07-06T05:13:45;98992.34;;;18.70;54.08
49611;BME280;35515;48.766;9.176;2022-07-06T05:16:12;98995.47;;;18.45;54.59
49611;BME280;35515;48.766;9.176;2022-07-06T05:18:38;99004.78;;;18.03;55.82
49611;BME280;35515;48.766;9.176;2022-07-06T05:21:06;99005.44;;;18.23;55.67
49611;BME280;35515;48.766;9.176;2022-07-06T05:23:33;99005.72;;;18.09;56.38
49611;BME280;35515;48.766;9.176;2022-07-06T05:25:59;99003.47;;;18.35;55.77
49611;BME280;35515;48.766;9.176;2022-07-06T05:28:27;99003.66;;;18.16;56.22
49611;BME280;35515;48.766;9.176;2022-07-06T05:30:53;99011.44;;;17.84;57.28
49611;BME280;35515;48.766;9.176;2022-07-06T05:33:20;99010.97;;;17.99;57.15
49611;BME280;35515;48.766;9.176;2022-07-06T05:35:46;99013.91;;;18.21;56.25
49611;BME280;35515;48.766;9.176;2022-07-06T05:38:15;99007.56;;;18.20;56.39
49611;BME280;35515;48.766;9.176;2022-07-06T05:40:42;99014.16;;;18.19;56.38
49611;BME280;35515;48.766;9.176;2022-07-06T05:43:08;99005.97;;;18.36;55.84
49611;BME280;35515;48.766;9.176;2022-07-06T05:45:35;99004.97;;;18.54;55.44
49611;BME280;35515;48.766;9.176;2022-07-06T05:48:02;99002.72;;;18.51;55.20
49611;BME280;35515;48.766;9.176;2022-07-06T05:50:46;99004.38;;;18.24;56.11
49611;BME280;35515;48.766;9.176;2022-07-06T05:53:14;99003.00;;;18.38;56.08
49611;BME280;35515;48.766;9.176;2022-07-06T05:55:41;99013.91;;;18.50;55.58
49611;BME280;35515;48.766;9.176;2022-07-06T05:58:08;99012.59;;;18.52;55.44
49611;BME280;35515;48.766;9.176;2022-07-06T06:00:35;99013.69;;;18.51;55.54
49611;BME280;35515;48.766;9.176;2022-07-06T06:03:02;99010.56;;;18.60;55.10
49611;BME280;35515;48.766;9.176;2022-07-06T06:05:28;99007.41;;;18.68;54.72
49611;BME280;35515;48.766;9.176;2022-07-06T06:07:55;99001.25;;;18.61;55.10
49611;BME280;35515;48.766;9.176;2022-07-06T06:10:23;99007.38;;;18.10;56.18
49611;BME280;35515;48.766;9.176;2022-07-06T06:12:50;99012.59;;;18.24;56.15
49611;BME280;35515;48.766;9.176;2022-07-06T06:15:17;99005.22;;;18.53;55.07
49611;BME280;35515;48.766;9.176;2022-07-06T06:17:43;99015.94;;;18.83;54.47
49611;BME280;35515;48.766;9.176;2022-07-06T06:20:12;99012.59;;;18.52;55.14
49611;BME280;35515;48.766;9.176;2022-07-06T06:22:49;99013.59;;;18.46;55.06
49611;BME280;35515;48.766;9.176;2022-07-06T06:25:17;99019.84;;;18.18;55.85
49611;BME280;35515;48.766;9.176;2022-07-06T06:27:46;99027.59;;;18.62;54.96
49611;BME280;35515;48.766;9.176;2022-07-06T06:30:13;99023.66;;;18.58;54.75
49611;BME280;35515;48.766;9.176;2022-07-06T06:32:40;99031.56;;;18.54;54.85
49611;BME280;35515;48.766;9.176;2022-07-06T06:35:08;99022.91;;;18.74;54.15
49611;BME280;35515;48.766;9.176;2022-07-06T06:37:34;99017.84;;;18.54;54.96
49611;BME280;35515;48.766;9.176;2022-07-06T06:40:02;99025.09;;;18.60;54.64
49611;BME280;35515;48.766;9.176;2022-07-06T06:42:28;99027.22;;;18.87;54.06
49611;BME280;35515;48.766;9.176;2022-07-06T06:44:56;99025.53;;;18.69;54.45
49611;BME280;35515;48.766;9.176;2022-07-06T06:47:23;99023.59;;;18.41;55.52
49611;BME280;35515;48.766;9.176;2022-07-06T06:49:50;99028.97;;;18.47;55.67
49611;BME280;35515;48.766;9.176;2022-07-06T06:52:16;99035.28;;;18.48;55.74
49611;BME280;35515;48.766;9.176;2022-07-06T06:54:45;99029.44;;;18.44;55.72
49611;BME280;35515;48.766;9.176;2022-07-06T06:57:12;99025.41;;;18.35;55.91
49611;BME280;35515;48.766;9.176;2022-07-06T06:59:38;99032.56;;;18.36;56.42
49611;BME280;35515;48.766;9.176;2022-07-06T07:02:06;99031.63;;;18.42;56.49
49611;BME280;35515;48.766;9.176;2022-07-06T07:04:33;99028.69;;;18.61;55.44
49611;BME280;35515;48.766;9.176;2022-07-06T07:07:00;99014.66;;;18.45;55.12
49611;BME280;35515;48.766;9.176;2022-07-06T07:09:26;99019.25;;;18.57;54.63
49611;BME280;35515;48.766;9.176;2022-07-06T07:11:53;99019.84;;;18.59;54.93
49611;BME280;35515;48.766;9.176;2022-07-06T07:14:20;99023.66;;;18.58;54.55
49611;BME280;35515;48.766;9.176;2022-07-06T07:16:46;99015.19;;;18.59;55.23
49611;BME280;35515;48.766;9.176;2022-07-06T07:19:14;99012.28;;;18.66;55.17
49611;BME280;35515;48.766;9.176;2022-07-06T07:21:41;99012.53;;;18.64;54.06
49611;BME280;35515;48.766;9.176;2022-07-06T07:24:08;99018.38;;;18.68;53.80
49611;BME280;35515;48.766;9.176;2022-07-06T07:26:35;99013.28;;;18.88;53.42
49611;BME280;35515;48.766;9.176;2022-07-06T07:29:02;99015.16;;;19.00;52.74
49611;BME280;35515;48.766;9.176;2022-07-06T07:31:28;99009.94;;;18.86;52.69
49611;BME280;35515;48.766;9.176;2022-07-06T07:33:55;99009.16;;;19.03;51.86
49611;BME280;35515;48.766;9.176;2022-07-06T07:36:25;99011.66;;;19.21;51.31
49611;BME280;35515;48.766;9.176;2022-07-06T07:38:51;99012.81;;;18.92;51.96
49611;BME280;35515;48.766;9.176;2022-07-06T07:41:18;99013.75;;;18.85;52.53
49611;BME280;35515;48.766;9.176;2022-07-06T07:43:45;99014.50;;;18.93;52.29
49611;BME280;35515;48.766;9.176;2022-07-06T07:46:11;99008.41;;;18.91;52.04
49611;BME280;35515;48.766;9.176;2022-07-06T07:48:38;99011.56;;;18.70;52.74
49611;BME280;35515;48.766;9.176;2022-07-06T07:51:04;99015.53;;;18.63;52.71
49611;BME280;35515;48.766;9.176;2022-07-06T07:53:32;99009.09;;;18.69;52.63
49611;BME280;35515;48.766;9.176;2022-07-06T07:56:00;99011.91;;;18.74;52.42
49611;BME280;35515;48.766;9.176;2022-07-06T07:58:26;99009.31;;;18.96;52.26
49611;BME280;35515;48.766;9.176;2022-07-06T08:00:53;99017.31;;;19.15;51.71
49611;BME280;35515;48.766;9.176;2022-07-06T08:03:19;99011.16;;;19.08;51.69
49611;BME280;35515;48.766;9.176;2022-07-06T08:05:46;99013.56;;;19.04;51.64
49611;BME280;35515;48.766;9.176;2022-07-06T08:08:13;99009.84;;;19.10;52.00
49611;BME280;35515;48.766;9.176;2022-07-06T08:10:41;99015.47;;;19.20;52.01
49611;BME280;35515;48.766;9.176;2022-07-06T08:13:08;99004.34;;;19.10;52.25
49611;BME280;35515;48.766;9.176;2022-07-06T08:15:36;99010.69;;;19.28;51.68
49611;BME280;35515;48.766;9.176;2022-07-06T08:18:02;99012.50;;;19.39;51.40
49611;BME280;35515;48.766;9.176;2022-07-06T08:20:29;99012.34;;;19.29;52.00
49611;BME280;35515;48.766;9.176;2022-07-06T08:22:56;99011.00;;;19.31;51.80
49611;BME280;35515;48.766;9.176;2022-07-06T08:25:22;99010.06;;;19.26;52.07
49611;BME280;35515;48.766;9.176;2022-07-06T08:27:50;99017.06;;;19.50;51.62
49611;BME280;35515;48.766;9.176;2022-07-06T08:30:17;99013.00;;;19.53;51.57
49611;BME280;35515;48.766;9.176;2022-07-06T08:32:43;99007.88;;;19.62;51.73
49611;BME280;35515;48.766;9.176;2022-07-06T08:35:10;99011.75;;;19.44;52.19
49611;BME280;35515;48.766;9.176;2022-07-06T08:37:37;99011.31;;;19.35;52.46
49611;BME280;35515;48.766;9.176;2022-07-06T08:40:05;99007.16;;;19.49;52.67
49611;BME280;35515;48.766;9.176;2022-07-06T08:42:33;99011.75;;;19.44;52.93
49611;BME280;35515;48.766;9.176;2022-07-06T08:45:05;99013.28;;;19.91;52.24
49611;BME280;35515;48.766;9.176;2022-07-06T08:47:35;99007.41;;;20.04;51.49
49611;BME280;35515;48.766;9.176;2022-07-06T08:50:03;99005.94;;;19.96;51.55
49611;BME280;35515;48.766;9.176;2022-07-06T08:52:30;99006.78;;;19.80;51.90
49611;BME280;35515;48.766;9.176;2022-07-06T08:54:57;99008.78;;;19.84;52.19
49611;BME280;35515;48.766;9.176;2022-07-06T08:57:25;99011.25;;;20.03;51.16
49611;BME280;35515;48.766;9.176;2022-07-06T08:59:52;99006.78;;;20.19;51.01
49611;BME280;35515;48.766;9.176;2022-07-06T09:02:24;99004.72;;;20.09;51.19
49611;BME280;35515;48.766;9.176;2022-07-06T09:04:51;99006.47;;;20.15;51.02
49611;BME280;35515;48.766;9.176;2022-07-06T09:07:21;99014.53;;;20.22;50.77
49611;BME280;35515;48.766;9.176;2022-07-06T09:09:49;99010.75;;;20.06;51.34
49611;BME280;35515;48.766;9.176;2022-07-06T09:12:16;99019.44;;;20.20;51.28
49611;BME280;35515;48.766;9.176;2022-07-06T09:14:42;99015.97;;;20.30;51.06
49611;BME280;35515;48.766;9.176;2022-07-06T09:17:09;99012.16;;;20.31;51.33
49611;BME280;35515;48.766;9.176;2022-07-06T09:19:38;99020.72;;;20.12;51.32
49611;BME280;35515;48.766;9.176;2022-07-06T09:22:04;99016.44;;;20.21;51.22
49611;BME280;35515;48.766;9.176;2022-07-06T09:24:31;99022.81;;;20.27;50.67
49611;BME280;35515;48.766;9.176;2022-07-06T09:26:58;99023.41;;;20.29;50.29
49611;BME280;35515;48.766;9.176;2022-07-06T09:29:29;99020.59;;;20.46;50.20
49611;BME280;35515;48.766;9.176;2022-07-06T09:31:57;99022.88;;;20.54;49.72
49611;BME280;35515;48.766;9.176;2022-07-06T09:34:24;99023.56;;;20.67;49.36
49611;BME280;35515;48.766;9.176;2022-07-06T09:36:53;99029.47;;;20.76;48.83
49611;BME280;35515;48.766;9.176;2022-07-06T09:39:25;99035.97;;;20.92;48.09
49611;BME280;35515;48.766;9.176;2022-07-06T09:41:53;99033.00;;;20.71;48.22
49611;BME280;35515;48.766;9.176;2022-07-06T09:44:24;99033.28;;;20.47;48.84
49611;BME280;35515;48.766;9.176;2022-07-06T09:46:52;99033.91;;;20.54;48.40
49611;BME280;35515;48.766;9.176;2022-07-06T09:49:20;99033.13;;;20.81;48.12
49611;BME280;35515;48.766;9.176;2022-07-06T09:51:49;99032.59;;;20.84;48.19
49611;BME280;35515;48.766;9.176;2022-07-06T09:54:18;99030.50;;;20.69;48.30
49611;BME280;35515;48.766;9.176;2022-07-06T09:56:46;99028.09;;;21.05;48.34
49611;BME280;35515;48.766;9.176;2022-07-06T09:59:17;99030.03;;;21.05;48.22
49611;BME280;35515;48.766;9.176;2022-07-06T10:01:44;99036.09;;;21.07;48.11
49611;BME280;35515;48.766;9.176;2022-07-06T10:04:12;99032.75;;;21.00;48.19
49611;BME280;35515;48.766;9.176;2022-07-06T10:06:39;99038.88;;;21.07;47.92
49611;BME280;35515;48.766;9.176;2022-07-06T10:09:08;99042.56;;;20.91;48.37
49611;BME280;35515;48.766;9.176;2022-07-06T10:11:38;99033.41;;;21.12;48.05
49611;BME280;35515;48.766;9.176;2022-07-06T10:14:06;99044.44;;;21.12;48.06
49611;BME280;35515;48.766;9.176;2022-07-06T10:16:35;99048.47;;;21.32;48.05
49611;BME280;35515;48.766;9.176;2022-07-06T10:19:04;99042.34;;;20.97;49.07
49611;BME280;35515;48.766;9.176;2022-07-06T10:21:32;99044.19;;;20.86;48.84
49611;BME280;35515;48.766;9.176;2022-07-06T10:24:01;99039.97;;;21.06;48.55
49611;BME280;35515;48.766;9.176;2022-07-06T10:26:28;99046.84;;;21.36;47.77
49611;BME280;35515;48.766;9.176;2022-07-06T10:28:58;99051.88;;;21.44;47.39
49611;BME280;35515;48.766;9.176;2022-07-06T10:31:26;99043.56;;;21.39;47.33
49611;BME280;35515;48.766;9.176;2022-07-06T10:33:54;99042.84;;;21.21;47.93
49611;BME280;35515;48.766;9.176;2022-07-06T10:36:20;99050.06;;;21.55;47.91
49611;BME280;35515;48.766;9.176;2022-07-06T10:38:49;99059.44;;;21.59;47.79
49611;BME280;35515;48.766;9.176;2022-07-06T10:41:16;99058.47;;;21.43;48.07
49611;BME280;35515;48.766;9.176;2022-07-06T10:43:44;99049.16;;;21.49;47.99
49611;BME280;35515;48.766;9.176;2022-07-06T10:46:13;99050.81;;;21.50;48.13
49611;BME280;35515;48.766;9.176;2022-07-06T10:48:41;99049.63;;;21.74;47.44
49611;BME280;35515;48.766;9.176;2022-07-06T10:51:08;99044.81;;;21.53;47.96
49611;BME280;35515;48.766;9.176;2022-07-06T10:53:38;99038.25;;;21.60;47.28
49611;BME280;35515;48.766;9.176;2022-07-06T10:56:06;99035.84;;;21.74;46.89
49611;BME280;35515;48.766;9.176;2022-07-06T10:58:41;99041.63;;;21.72;46.48
49611;BME280;35515;48.766;9.176;2022-07-06T11:01:13;99038.56;;;21.63;46.79
49611;BME280;35515;48.766;9.176;2022-07-06T11:03:42;99039.50;;;21.84;47.16
49611;BME280;35515;48.766;9.176;2022-07-06T11:06:10;99047.00;;;21.89;47.41
49611;BME280;35515;48.766;9.176;2022-07-06T11:08:52;99039.22;;;21.81;47.23
49611;BME280;35515;48.766;9.176;2022-07-06T11:11:22;99035.28;;;21.71;47.06
49611;BME280;35515;48.766;9.176;2022-07-06T11:13:59;99037.78;;;21.73;47.20
49611;BME280;35515;48.766;9.176;2022-07-06T11:16:30;99031.81;;;21.86;47.06
49611;BME280;35515;48.766;9.176;2022-07-06T11:19:04;99030.19;;;21.96;46.65
49611;BME280;35515;48.766;9.176;2022-07-06T11:21:33;99028.53;;;21.95;46.96
49611;BME280;35515;48.766;9.176;2022-07-06T11:24:00;99033.69;;;22.29;46.39
49611;BME280;35515;48.766;9.176;2022-07-06T11:26:27;99026.75;;;22.21;46.25
49611;BME280;35515;48.766;9.176;2022-07-06T11:28:55;99041.97;;;22.29;46.31
49611;BME280;35515;48.766;9.176;2022-07-06T11:31:21;99028.16;;;22.29;45.77
49611;BME280;35515;48.766;9.176;2022-07-06T11:33:49;99025.38;;;22.24;45.94
49611;BME280;35515;48.766;9.176;2022-07-06T11:36:18;99029.06;;;21.92;46.87
49611;BME280;35515;48.766;9.176;2022-07-06T11:38:46;99022.84;;;22.12;46.63
49611;BME280;35515;48.766;9.176;2022-07-06T11:41:13;99023.88;;;21.95;47.10
49611;BME280;35515;48.766;9.176;2022-07-06T11:43:41;99017.16;;;21.81;47.16
49611;BME280;35515;48.766;9.176;2022-07-06T11:46:24;99016.94;;;21.98;46.89
49611;BME280;35515;48.766;9.176;2022-07-06T11:48:54;99012.34;;;21.61;47.81
49611;BME280;35515;48.766;9.176;2022-07-06T11:51:22;99016.88;;;21.82;47.25
49611;BME280;35515;48.766;9.176;2022-07-06T11:53:50;99001.25;;;21.98;47.17
49611;BME280;35515;48.766;9.176;2022-07-06T11:56:17;99011.97;;;21.95;47.11
49611;BME280;35515;48.766;9.176;2022-07-06T11:58:49;99008.69;;;21.98;47.29
49611;BME280;35515;48.766;9.176;2022-07-06T12:01:16;99015.66;;;22.11;46.64
49611;BME280;35515;48.766;9.176;2022-07-06T12:03:43;99013.78;;;22.27;46.52
49611;BME280;35515;48.766;9.176;2022-07-06T12:06:16;99004.66;;;22.21;46.55
49611;BME280;35515;48.766;9.176;2022-07-06T12:08:45;98993.31;;;22.12;46.23
49611;BME280;35515;48.766;9.176;2022-07-06T12:11:19;98997.75;;;22.18;46.45
49611;BME280;35515;48.766;9.176;2022-07-06T12:13:46;98990.69;;;22.38;46.02
49611;BME280;35515;48.766;9.176;2022-07-06T12:16:14;98999.59;;;22.61;45.58
49611;BME280;35515;48.766;9.176;2022-07-06T12:18:42;99006.50;;;22.68;45.24
49611;BME280;35515;48.766;9.176;2022-07-06T12:21:11;98992.94;;;22.51;45.52
49611;BME280;35515;48.766;9.176;2022-07-06T12:23:41;99001.38;;;22.29;45.89
49611;BME280;35515;48.766;9.176;2022-07-06T12:26:09;99002.19;;;22.30;45.95
49611;BME280;35515;48.766;9.176;2022-07-06T12:28:36;98993.09;;;22.29;45.89
49611;BME280;35515;48.766;9.176;2022-07-06T12:31:03;99001.38;;;22.29;45.96
49611;BME280;35515;48.766;9.176;2022-07-06T12:33:29;98996.06;;;22.12;46.22
49611;BME280;35515;48.766;9.176;2022-07-06T12:35:56;98983.78;;;22.35;45.69
49611;BME280;35515;48.766;9.176;2022-07-06T12:38:24;98995.03;;;22.29;45.60
49611;BME280;35515;48.766;9.176;2022-07-06T12:40:52;99001.06;;;22.15;45.99
49611;BME280;35515;48.766;9.176;2022-07-06T12:43:36;99004.09;;;22.19;45.89
49611;BME280;35515;48.766;9.176;2022-07-06T12:46:28;98988.19;;;22.36;45.55
49611;BME280;35515;48.766;9.176;2022-07-06T12:48:57;99010.00;;;22.38;45.24
49611;BME280;35515;48.766;9.176;2022-07-06T12:51:25;98997.06;;;22.49;44.95
49611;BME280;35515;48.766;9.176;2022-07-06T12:53:52;98991.28;;;22.50;44.79
49611;BME280;35515;48.766;9.176;2022-07-06T12:56:21;98986.78;;;22.34;44.83
49611;BME280;35515;48.766;9.176;2022-07-06T12:58:57;98990.56;;;22.17;45.16
49611;BME280;35515;48.766;9.176;2022-07-06T13:01:25;98993.81;;;22.04;45.60
49611;BME280;35515;48.766;9.176;2022-07-06T13:03:55;98993.06;;;22.19;45.38